Time;durP1;ratioP1;P1;durP2;ratioP2;P2;SDS_P1;SDS_P2;PMS_P1;PMS_P2;Temp;Humidity;BMP_temperature;BMP_pressure;BME280_temperature;BME280_humidity;BME280_pressure;Samples;Min_cycle;Max_cycle;Signal;HPM_P1;HPM_P2
2023/09/26 00:01:02;;;;;;;0.20;0.20;;;17.20;99.90;;;;;;4948692;28;20082;-92
2023/09/26 00:03:28;;;;;;;1.65;0.50;;;17.20;99.90;;;;;;4953743;28;20688;-92
2023/09/26 00:05:54;;;;;;;0.10;0.10;;;17.30;99.90;;;;;;4949924;28;20046;-93
2023/09/26 00:08:20;;;;;;;0.10;0.10;;;17.30;99.90;;;;;;4952354;28;20019;-92
2023/09/26 00:10:49;;;;;;;0.22;0.22;;;17.30;99.90;;;;;;4952173;28;20539;-92
2023/09/26 00:13:15;;;;;;;0.20;0.20;;;17.50;99.90;;;;;;4946893;28;20361;-92
2023/09/26 00:15:41;;;;;;;0.20;0.20;;;17.40;99.90;;;;;;4943751;28;20027;-92
2023/09/26 00:18:07;;;;;;;0.20;0.20;;;17.40;99.90;;;;;;4948927;28;20042;-92
2023/09/26 00:20:37;;;;;;;0.20;0.20;;;17.50;99.90;;;;;;4947884;28;20374;-91
2023/09/26 00:23:04;;;;;;;0.38;0.38;;;17.50;99.90;;;;;;4948863;28;20015;-92
2023/09/26 00:25:30;;;;;;;0.20;0.20;;;17.50;99.90;;;;;;4954887;28;20026;-92
2023/09/26 00:27:57;;;;;;;0.13;0.13;;;17.50;99.90;;;;;;4947771;28;20472;-92
2023/09/26 00:30:27;;;;;;;0.22;0.22;;;17.40;99.90;;;;;;4950190;28;20109;-92
2023/09/26 00:32:53;;;;;;;0.70;0.28;;;17.40;99.90;;;;;;4947259;28;20381;-91
2023/09/26 00:35:19;;;;;;;0.20;0.20;;;17.20;99.90;;;;;;4964953;28;20125;-92
2023/09/26 00:37:49;;;;;;;0.10;0.10;;;17.00;99.90;;;;;;4947895;28;20019;-92
2023/09/26 00:40:16;;;;;;;0.80;0.45;;;16.90;99.90;;;;;;4948134;28;20220;-92
2023/09/26 00:42:45;;;;;;;0.15;0.15;;;16.90;99.90;;;;;;4949229;28;20241;-92
2023/09/26 00:45:11;;;;;;;0.40;0.40;;;16.90;99.90;;;;;;4945127;28;20023;-91
2023/09/26 00:47:42;;;;;;;0.20;0.20;;;16.90;99.90;;;;;;4946901;28;20074;-92
2023/09/26 00:50:12;;;;;;;0.10;0.10;;;17.00;99.90;;;;;;4945271;28;20054;-92
2023/09/26 00:52:47;;;;;;;0.10;0.10;;;17.00;99.90;;;;;;4964559;28;20039;-92
2023/09/26 00:55:16;;;;;;;0.30;0.30;;;16.90;99.90;;;;;;4945575;28;20031;-92
2023/09/26 00:57:43;;;;;;;0.10;0.10;;;17.00;99.90;;;;;;4946150;28;20284;-92
2023/09/26 01:00:12;;;;;;;0.10;0.10;;;17.00;99.90;;;;;;4948899;28;20194;-91
2023/09/26 01:02:39;;;;;;;0.10;0.10;;;17.00;99.90;;;;;;4947846;28;20061;-92
2023/09/26 01:05:11;;;;;;;0.20;0.20;;;17.00;99.90;;;;;;4945912;28;20150;-91
2023/09/26 01:07:38;;;;;;;0.20;0.20;;;16.90;99.90;;;;;;4941718;28;20019;-91
2023/09/26 01:10:05;;;;;;;0.20;0.20;;;16.70;99.90;;;;;;4955374;28;20015;-92
2023/09/26 01:12:31;;;;;;;0.52;0.40;;;16.50;99.90;;;;;;4949727;28;20027;-92
2023/09/26 01:14:57;;;;;;;0.32;0.32;;;16.40;99.90;;;;;;4948028;28;20116;-91
2023/09/26 01:17:22;;;;;;;0.30;0.30;;;16.40;99.90;;;;;;4946838;28;20026;-91
2023/09/26 01:19:48;;;;;;;0.10;0.10;;;16.30;99.90;;;;;;4949538;28;20275;-92
2023/09/26 01:22:16;;;;;;;0.15;0.15;;;16.20;99.90;;;;;;4945677;28;20050;-92
2023/09/26 01:24:43;;;;;;;0.32;0.20;;;16.10;99.90;;;;;;4946935;28;20471;-91
2023/09/26 01:27:09;;;;;;;3.60;0.35;;;16.10;99.90;;;;;;4947993;28;20471;-92
2023/09/26 01:29:35;;;;;;;0.13;0.13;;;16.10;99.90;;;;;;4947395;28;20134;-92
2023/09/26 01:32:01;;;;;;;0.10;0.10;;;16.00;99.90;;;;;;4948649;28;20720;-92
2023/09/26 01:34:27;;;;;;;0.55;0.55;;;16.00;99.90;;;;;;4947366;28;20081;-92
2023/09/26 01:36:53;;;;;;;0.43;0.43;;;16.00;99.90;;;;;;4946966;28;20435;-92
2023/09/26 01:39:18;;;;;;;0.20;0.20;;;16.10;99.90;;;;;;4950517;28;20117;-91
2023/09/26 01:41:46;;;;;;;0.25;0.25;;;16.20;99.90;;;;;;4951262;28;20098;-91
2023/09/26 01:44:11;;;;;;;0.38;0.38;;;16.10;99.90;;;;;;4951900;28;20027;-91
2023/09/26 01:46:37;;;;;;;0.30;0.30;;;16.10;99.90;;;;;;4950801;28;20023;-92
2023/09/26 01:49:03;;;;;;;0.10;0.10;;;16.10;99.90;;;;;;4951579;28;20030;-91
2023/09/26 01:51:29;;;;;;;0.15;0.15;;;16.10;99.90;;;;;;4949503;28;20023;-92
2023/09/26 01:53:54;;;;;;;0.32;0.32;;;16.10;99.90;;;;;;4951454;28;20085;-91
2023/09/26 01:56:21;;;;;;;0.20;0.20;;;16.10;99.90;;;;;;4952431;28;20038;-91
2023/09/26 01:58:47;;;;;;;0.10;0.10;;;16.00;99.90;;;;;;4948910;28;20035;-91
2023/09/26 02:01:13;;;;;;;0.10;0.10;;;16.10;99.90;;;;;;4950393;28;20019;-92
2023/09/26 02:03:38;;;;;;;0.22;0.22;;;16.20;99.90;;;;;;4951370;28;20482;-92
2023/09/26 02:06:04;;;;;;;0.25;0.20;;;16.30;99.90;;;;;;4949977;28;20118;-92
2023/09/26 02:08:30;;;;;;;0.55;0.35;;;16.40;99.90;;;;;;4949322;28;20475;-92
2023/09/26 02:10:56;;;;;;;0.20;0.20;;;16.50;99.90;;;;;;4948231;28;20026;-92
2023/09/26 02:13:21;;;;;;;0.10;0.10;;;16.50;99.90;;;;;;4959179;28;20371;-91
2023/09/26 02:15:47;;;;;;;1.88;0.40;;;16.50;99.90;;;;;;4949334;28;20158;-91
2023/09/26 02:18:13;;;;;;;0.10;0.10;;;16.40;99.90;;;;;;4950758;28;20034;-91
2023/09/26 02:20:38;;;;;;;0.20;0.20;;;16.30;99.90;;;;;;4949172;28;20050;-92
2023/09/26 02:23:04;;;;;;;0.30;0.20;;;16.20;99.90;;;;;;4954111;28;20082;-91
2023/09/26 02:25:30;;;;;;;0.20;0.20;;;16.10;99.90;;;;;;4951768;28;20109;-92
2023/09/26 02:27:55;;;;;;;0.17;0.17;;;16.10;99.90;;;;;;4947875;28;20050;-92
2023/09/26 02:30:24;;;;;;;0.20;0.20;;;16.10;99.90;;;;;;4949479;28;20022;-92
2023/09/26 02:32:49;;;;;;;0.20;0.20;;;16.10;99.90;;;;;;4946872;28;20023;-91
2023/09/26 02:35:16;;;;;;;0.65;0.52;;;16.00;99.90;;;;;;4936735;28;20027;-92
2023/09/26 02:37:43;;;;;;;0.15;0.15;;;15.90;99.90;;;;;;4951135;28;20026;-92
2023/09/26 02:40:10;;;;;;;0.20;0.20;;;15.90;99.90;;;;;;4946170;28;20396;-91
2023/09/26 02:42:46;;;;;;;0.10;0.10;;;15.90;99.90;;;;;;4942881;28;20110;-91
2023/09/26 02:45:13;;;;;;;4.75;0.63;;;15.90;99.90;;;;;;4944129;28;20082;-92
2023/09/26 02:47:39;;;;;;;0.40;0.40;;;15.90;99.90;;;;;;4950732;28;20027;-92
2023/09/26 02:50:05;;;;;;;0.10;0.10;;;15.90;99.90;;;;;;4950800;28;20030;-91
2023/09/26 02:52:31;;;;;;;0.40;0.40;;;15.90;99.90;;;;;;4944034;28;20105;-92
2023/09/26 02:54:57;;;;;;;0.28;0.28;;;15.80;99.90;;;;;;4947913;28;20173;-91
2023/09/26 02:57:22;;;;;;;0.60;0.60;;;15.90;99.90;;;;;;4949494;28;20091;-91
2023/09/26 02:59:48;;;;;;;1.55;0.50;;;15.90;99.90;;;;;;4948783;28;20330;-92
2023/09/26 03:02:14;;;;;;;0.10;0.10;;;15.90;99.90;;;;;;4947511;28;20094;-92
2023/09/26 03:04:39;;;;;;;0.30;0.30;;;15.90;99.90;;;;;;4944668;28;20673;-92
2023/09/26 03:07:05;;;;;;;0.43;0.20;;;15.80;99.90;;;;;;4943204;29;20019;-92
2023/09/26 03:09:31;;;;;;;0.20;0.20;;;15.80;99.90;;;;;;4937732;28;20034;-91
2023/09/26 03:11:57;;;;;;;0.10;0.10;;;15.80;99.90;;;;;;4942845;28;20119;-92
2023/09/26 03:14:23;;;;;;;0.38;0.38;;;15.80;99.90;;;;;;4939908;28;20031;-92
2023/09/26 03:16:49;;;;;;;0.40;0.40;;;15.80;99.90;;;;;;4949481;28;20052;-91
2023/09/26 03:19:22;;;;;;;0.10;0.10;;;15.80;99.90;;;;;;4939515;28;20023;-91
2023/09/26 03:21:51;;;;;;;0.10;0.10;;;15.90;99.90;;;;;;4956650;28;20027;-92
2023/09/26 03:24:17;;;;;;;0.10;0.10;;;15.90;99.90;;;;;;4953800;28;20472;-91
2023/09/26 03:26:43;;;;;;;0.63;0.30;;;15.70;99.90;;;;;;4949625;28;20479;-92
2023/09/26 03:29:09;;;;;;;0.20;0.20;;;15.70;99.90;;;;;;4946840;28;20038;-92
2023/09/26 03:31:34;;;;;;;0.15;0.15;;;15.70;99.90;;;;;;4949567;28;20110;-92
2023/09/26 03:34:00;;;;;;;0.20;0.20;;;15.70;99.90;;;;;;4950684;28;20023;-92
2023/09/26 03:36:26;;;;;;;0.10;0.10;;;15.70;99.90;;;;;;4949132;28;20019;-91
2023/09/26 03:38:52;;;;;;;0.20;0.20;;;15.60;99.90;;;;;;4945233;28;20023;-92
2023/09/26 03:41:18;;;;;;;0.32;0.32;;;15.60;99.90;;;;;;4967240;28;20031;-91
2023/09/26 03:43:44;;;;;;;0.25;0.25;;;15.60;99.90;;;;;;4965202;28;20348;-92
2023/09/26 03:46:09;;;;;;;0.40;0.40;;;15.70;99.90;;;;;;4949811;28;20313;-91
2023/09/26 03:48:36;;;;;;;0.15;0.15;;;15.70;99.90;;;;;;4942065;28;20035;-91
2023/09/26 03:51:14;;;;;;;0.15;0.15;;;15.80;99.90;;;;;;4950105;28;20022;-91
2023/09/26 03:53:42;;;;;;;0.10;0.10;;;15.80;99.90;;;;;;4948524;28;20023;-92
2023/09/26 03:56:08;;;;;;;0.30;0.30;;;15.80;99.90;;;;;;4950150;28;20038;-92
2023/09/26 03:58:34;;;;;;;0.10;0.10;;;15.70;99.90;;;;;;4947992;28;20076;-92
2023/09/26 04:01:16;;;;;;;0.28;0.28;;;15.60;99.90;;;;;;4946416;28;20078;-92
2023/09/26 04:03:48;;;;;;;0.30;0.30;;;15.60;99.90;;;;;;4949379;28;20283;-91
2023/09/26 04:06:15;;;;;;;0.13;0.13;;;15.60;99.90;;;;;;4948999;28;20422;-92
2023/09/26 04:08:41;;;;;;;0.45;0.45;;;15.70;99.90;;;;;;4946466;28;20475;-92
2023/09/26 04:11:13;;;;;;;0.10;0.10;;;15.70;99.90;;;;;;4946884;28;20031;-92
2023/09/26 04:13:38;;;;;;;0.43;0.43;;;15.80;99.90;;;;;;4963739;28;20171;-92
2023/09/26 04:16:05;;;;;;;0.20;0.20;;;15.80;99.90;;;;;;4946734;28;20046;-92
2023/09/26 04:18:31;;;;;;;0.10;0.10;;;15.80;99.90;;;;;;4948763;28;20113;-92
2023/09/26 04:21:00;;;;;;;0.15;0.15;;;15.70;99.90;;;;;;4949604;28;20077;-91
2023/09/26 04:23:27;;;;;;;0.38;0.38;;;15.80;99.90;;;;;;4949456;28;20027;-91
2023/09/26 04:25:53;;;;;;;0.10;0.10;;;15.80;99.90;;;;;;4943095;28;20030;-91
2023/09/26 04:28:19;;;;;;;0.10;0.10;;;15.70;99.90;;;;;;4946785;28;20479;-92
2023/09/26 04:30:44;;;;;;;0.10;0.10;;;15.70;99.90;;;;;;4945795;28;20042;-91
2023/09/26 04:33:10;;;;;;;0.10;0.10;;;15.60;99.90;;;;;;4947509;28;20014;-91
2023/09/26 04:35:36;;;;;;;0.10;0.10;;;15.50;99.90;;;;;;4947992;28;20046;-91
2023/09/26 04:38:04;;;;;;;0.10;0.10;;;15.40;99.90;;;;;;4952258;28;20019;-92
2023/09/26 04:40:29;;;;;;;0.35;0.35;;;15.40;99.90;;;;;;4950384;28;20066;-91
2023/09/26 04:43:01;;;;;;;0.10;0.10;;;15.30;99.90;;;;;;4948869;28;20034;-91
2023/09/26 04:45:29;;;;;;;0.10;0.10;;;15.30;99.90;;;;;;4941342;28;20510;-92
2023/09/26 04:48:01;;;;;;;0.30;0.30;;;15.20;99.90;;;;;;4947335;28;20031;-91
2023/09/26 04:50:27;;;;;;;0.10;0.10;;;15.20;99.90;;;;;;4943651;28;20054;-92
2023/09/26 04:52:57;;;;;;;1.80;0.43;;;15.20;99.90;;;;;;4948692;28;20027;-92
2023/09/26 04:55:23;;;;;;;0.20;0.20;;;15.20;99.90;;;;;;4945976;28;20034;-92
2023/09/26 04:57:49;;;;;;;0.10;0.10;;;15.20;99.90;;;;;;4950157;28;20454;-91
2023/09/26 05:00:17;;;;;;;0.10;0.10;;;15.20;99.90;;;;;;4947867;28;20025;-90
2023/09/26 05:02:43;;;;;;;0.45;0.43;;;15.20;99.90;;;;;;4937837;28;20042;-90
2023/09/26 05:05:10;;;;;;;0.10;0.10;;;15.20;99.90;;;;;;4945350;28;20023;-90
2023/09/26 05:07:36;;;;;;;0.63;0.52;;;15.20;99.90;;;;;;4943102;28;20048;-90
2023/09/26 05:10:03;;;;;;;0.20;0.20;;;15.20;99.90;;;;;;4947297;28;20032;-91
2023/09/26 05:12:29;;;;;;;0.25;0.25;;;15.20;99.90;;;;;;4945063;28;20043;-90
2023/09/26 05:14:55;;;;;;;0.40;0.40;;;15.20;99.90;;;;;;4962715;28;20582;-90
2023/09/26 05:17:24;;;;;;;0.20;0.20;;;15.20;99.90;;;;;;4945069;28;20215;-91
2023/09/26 05:19:51;;;;;;;0.10;0.10;;;15.10;99.90;;;;;;4943791;28;20034;-91
2023/09/26 05:22:17;;;;;;;0.10;0.10;;;15.10;99.90;;;;;;4943612;28;20517;-90
2023/09/26 05:24:43;;;;;;;0.30;0.17;;;15.10;99.90;;;;;;4947313;28;20690;-91
2023/09/26 05:27:11;;;;;;;0.10;0.10;;;15.10;99.90;;;;;;4944489;28;20027;-90
2023/09/26 05:29:36;;;;;;;0.25;0.25;;;15.10;99.90;;;;;;4935977;28;20018;-90
2023/09/26 05:32:02;;;;;;;0.10;0.10;;;15.20;99.90;;;;;;4940633;28;20050;-91
2023/09/26 05:34:28;;;;;;;0.10;0.10;;;15.20;99.90;;;;;;4953093;28;20046;-91
2023/09/26 05:36:53;;;;;;;0.47;0.30;;;15.30;99.90;;;;;;4943517;28;20027;-91
2023/09/26 05:39:19;;;;;;;0.35;0.35;;;15.30;99.90;;;;;;4940788;28;20019;-90
2023/09/26 05:41:44;;;;;;;0.38;0.38;;;15.40;99.90;;;;;;4937840;28;20030;-91
2023/09/26 05:44:11;;;;;;;0.30;0.30;;;15.50;99.90;;;;;;4942810;28;20046;-91
2023/09/26 05:46:37;;;;;;;0.40;0.40;;;15.60;99.90;;;;;;4935854;28;20019;-90
2023/09/26 05:49:03;;;;;;;0.10;0.10;;;15.60;99.90;;;;;;4945784;28;20361;-90
2023/09/26 05:51:29;;;;;;;0.10;0.10;;;15.60;99.90;;;;;;4940559;28;20028;-90
2023/09/26 05:53:54;;;;;;;0.52;0.52;;;15.60;99.90;;;;;;4948098;28;20118;-90
2023/09/26 05:56:20;;;;;;;0.77;0.57;;;15.60;99.90;;;;;;4943672;28;20038;-90
2023/09/26 05:58:46;;;;;;;0.20;0.20;;;15.60;99.90;;;;;;4942031;28;20455;-90
2023/09/26 06:01:12;;;;;;;0.17;0.17;;;15.60;99.90;;;;;;4934482;29;20219;-90
2023/09/26 06:03:38;;;;;;;0.10;0.10;;;15.60;99.90;;;;;;4963091;28;20347;-90
2023/09/26 06:06:04;;;;;;;0.20;0.20;;;15.60;99.90;;;;;;4939003;28;20027;-91
2023/09/26 06:08:30;;;;;;;0.10;0.10;;;15.60;99.90;;;;;;4942502;28;20027;-91
2023/09/26 06:10:55;;;;;;;0.17;0.17;;;15.60;99.90;;;;;;4945935;28;20536;-93
2023/09/26 06:13:24;;;;;;;0.47;0.30;;;15.60;99.90;;;;;;4947161;28;20042;-94
2023/09/26 06:15:54;;;;;;;0.43;0.22;;;15.50;99.90;;;;;;4960503;28;20031;-94
2023/09/26 06:18:20;;;;;;;0.10;0.10;;;15.50;99.90;;;;;;4945310;28;20511;-94
2023/09/26 06:20:45;;;;;;;0.17;0.17;;;15.60;99.90;;;;;;4951041;28;20162;-94
2023/09/26 06:23:12;;;;;;;0.20;0.20;;;15.70;99.90;;;;;;4973331;28;20027;-92
2023/09/26 06:25:38;;;;;;;0.57;0.57;;;15.60;99.90;;;;;;4975001;28;20011;-92
2023/09/26 06:28:04;;;;;;;0.47;0.32;;;15.50;99.90;;;;;;4967504;28;20054;-92
2023/09/26 06:30:29;;;;;;;0.15;0.15;;;15.60;99.90;;;;;;4945913;28;20103;-94
2023/09/26 06:32:55;;;;;;;0.43;0.43;;;15.60;99.90;;;;;;4951240;28;20058;-93
2023/09/26 06:35:21;;;;;;;0.20;0.20;;;15.60;99.90;;;;;;4950737;28;20062;-95
2023/09/26 06:37:46;;;;;;;0.10;0.10;;;15.60;99.90;;;;;;4948182;28;20023;-95
2023/09/26 06:40:12;;;;;;;0.17;0.17;;;15.60;99.90;;;;;;4953755;28;20061;-93
2023/09/26 06:42:38;;;;;;;0.28;0.28;;;15.70;99.90;;;;;;4950870;28;20578;-93
2023/09/26 06:45:04;;;;;;;1.45;0.40;;;15.70;99.90;;;;;;4949206;28;20493;-94
2023/09/26 06:47:32;;;;;;;0.32;0.32;;;15.80;99.90;;;;;;4953391;28;20117;-93
2023/09/26 06:49:58;;;;;;;0.40;0.32;;;15.90;99.90;;;;;;4959611;28;20083;-94
2023/09/26 06:52:24;;;;;;;0.20;0.20;;;16.00;99.90;;;;;;4957886;28;20617;-95
2023/09/26 06:54:50;;;;;;;0.55;0.55;;;16.00;99.90;;;;;;4952198;28;20069;-92
2023/09/26 06:57:17;;;;;;;0.20;0.20;;;16.00;99.90;;;;;;4947190;28;20634;-95
2023/09/26 06:59:48;;;;;;;0.20;0.20;;;16.00;99.90;;;;;;4941994;28;20035;-95
2023/09/26 07:02:14;;;;;;;0.25;0.25;;;16.10;99.90;;;;;;4956039;28;20067;-95
2023/09/26 07:04:40;;;;;;;0.20;0.20;;;16.20;99.90;;;;;;4952730;28;20117;-94
2023/09/26 07:07:06;;;;;;;0.28;0.28;;;16.20;99.90;;;;;;4957634;28;20030;-94
2023/09/26 07:09:31;;;;;;;0.40;0.40;;;16.30;99.90;;;;;;4954576;28;20054;-94
2023/09/26 07:11:57;;;;;;;0.30;0.30;;;16.40;99.90;;;;;;4953021;28;20718;-95
2023/09/26 07:14:23;;;;;;;0.10;0.10;;;16.50;99.90;;;;;;4951065;28;20608;-95
2023/09/26 07:16:50;;;;;;;0.10;0.10;;;16.50;99.90;;;;;;4950736;28;20154;-94
2023/09/26 07:19:16;;;;;;;0.20;0.20;;;16.60;99.90;;;;;;4952576;28;20486;-94
2023/09/26 07:21:42;;;;;;;0.45;0.45;;;16.50;99.90;;;;;;4955888;28;20050;-93
2023/09/26 07:24:08;;;;;;;0.30;0.30;;;16.60;99.90;;;;;;4958993;28;20027;-95
2023/09/26 07:26:34;;;;;;;0.90;0.70;;;16.60;99.90;;;;;;4965790;28;20027;-95
2023/09/26 07:29:00;;;;;;;1.35;0.68;;;16.80;99.90;;;;;;4963659;28;20027;-95
2023/09/26 07:31:26;;;;;;;0.50;0.50;;;16.80;99.90;;;;;;4960790;28;20027;-95
2023/09/26 07:33:52;;;;;;;0.30;0.30;;;16.90;99.90;;;;;;4953141;28;20471;-95
2023/09/26 07:36:18;;;;;;;0.20;0.20;;;17.00;99.90;;;;;;4948936;28;20442;-95
2023/09/26 07:38:44;;;;;;;0.65;0.40;;;16.90;99.90;;;;;;4950012;28;20030;-95
2023/09/26 07:41:09;;;;;;;0.40;0.40;;;17.00;99.90;;;;;;4952724;28;20034;-95
2023/09/26 07:43:35;;;;;;;0.40;0.40;;;17.10;99.90;;;;;;4952452;28;20069;-95
2023/09/26 07:46:08;;;;;;;0.77;0.77;;;17.20;99.90;;;;;;4952117;28;20122;-95
2023/09/26 07:48:34;;;;;;;0.20;0.20;;;17.20;99.90;;;;;;4961450;28;20021;-95
2023/09/26 07:51:01;;;;;;;2.13;0.85;;;17.30;99.90;;;;;;4954688;28;20050;-94
2023/09/26 07:53:26;;;;;;;0.30;0.30;;;17.30;99.90;;;;;;4979555;28;20017;-96
2023/09/26 07:55:58;;;;;;;0.20;0.20;;;17.40;99.90;;;;;;4964071;28;20050;-94
2023/09/26 07:58:24;;;;;;;0.77;0.77;;;17.50;99.90;;;;;;4948681;28;20033;-96
2023/09/26 08:00:52;;;;;;;0.20;0.20;;;17.60;99.90;;;;;;4950881;28;20109;-92
2023/09/26 08:03:18;;;;;;;0.45;0.45;;;17.60;99.90;;;;;;4954817;28;20015;-95
2023/09/26 08:05:44;;;;;;;0.30;0.30;;;17.70;99.90;;;;;;4953841;28;20126;-95
2023/09/26 08:08:09;;;;;;;0.40;0.40;;;17.70;99.90;;;;;;4954053;28;20027;-94
2023/09/26 08:10:39;;;;;;;0.50;0.50;;;17.80;99.90;;;;;;4953665;28;20073;-95
2023/09/26 08:13:06;;;;;;;0.55;0.55;;;17.80;99.90;;;;;;4952580;28;20034;-94
2023/09/26 08:15:34;;;;;;;0.60;0.60;;;17.90;99.90;;;;;;4952163;28;20043;-94
2023/09/26 08:18:02;;;;;;;0.47;0.45;;;17.90;99.90;;;;;;4952951;28;20268;-95
2023/09/26 08:20:28;;;;;;;1.33;0.40;;;17.90;99.90;;;;;;4953086;28;20034;-95
2023/09/26 08:22:54;;;;;;;0.77;0.77;;;18.00;99.90;;;;;;4951391;28;20034;-95
2023/09/26 08:25:19;;;;;;;0.40;0.40;;;18.10;99.90;;;;;;4951766;28;20448;-94
2023/09/26 08:27:45;;;;;;;1.67;0.55;;;18.20;99.90;;;;;;4952405;28;20034;-96
2023/09/26 08:30:11;;;;;;;3.10;0.55;;;18.30;99.90;;;;;;4950979;28;20768;-94
2023/09/26 08:32:38;;;;;;;0.77;0.77;;;18.30;99.90;;;;;;4951678;28;20038;-95
2023/09/26 08:35:05;;;;;;;0.68;0.68;;;18.40;99.90;;;;;;4952635;28;20031;-94
2023/09/26 08:37:33;;;;;;;0.30;0.30;;;18.50;99.90;;;;;;4953335;28;20041;-94
2023/09/26 08:39:59;;;;;;;0.22;0.22;;;18.60;99.90;;;;;;4953276;28;20312;-94
2023/09/26 08:42:27;;;;;;;0.17;0.17;;;18.60;99.90;;;;;;4945254;28;20058;-95
2023/09/26 08:44:58;;;;;;;0.30;0.30;;;18.70;99.90;;;;;;4950040;28;20539;-94
2023/09/26 08:47:24;;;;;;;0.40;0.40;;;18.70;99.90;;;;;;4952628;28;20035;-95
2023/09/26 08:49:54;;;;;;;0.30;0.30;;;18.80;99.90;;;;;;4952085;28;20399;-94
2023/09/26 08:52:22;;;;;;;0.28;0.28;;;19.00;99.90;;;;;;4943296;28;20502;-94
2023/09/26 08:54:47;;;;;;;0.30;0.30;;;19.10;99.90;;;;;;4961782;28;20081;-95
2023/09/26 08:57:14;;;;;;;0.73;0.68;;;19.30;99.90;;;;;;4952558;28;20070;-94
2023/09/26 08:59:42;;;;;;;0.50;0.50;;;19.40;99.90;;;;;;4973776;28;20124;-95
2023/09/26 09:02:11;;;;;;;0.40;0.40;;;19.60;99.90;;;;;;4968408;28;20027;-94
2023/09/26 09:04:42;;;;;;;1.02;0.63;;;19.70;99.90;;;;;;4969307;28;20033;-95
2023/09/26 09:07:08;;;;;;;0.70;0.70;;;19.70;99.90;;;;;;4960128;28;20081;-95
2023/09/26 09:09:34;;;;;;;0.68;0.68;;;19.90;99.90;;;;;;4949469;28;20026;-95
2023/09/26 09:12:00;;;;;;;0.22;0.22;;;20.10;99.90;;;;;;4951292;28;20038;-96
2023/09/26 09:14:34;;;;;;;0.40;0.40;;;20.30;99.90;;;;;;4950983;28;20065;-96
2023/09/26 09:16:59;;;;;;;0.50;0.50;;;20.40;99.90;;;;;;4952131;28;20023;-95
2023/09/26 09:20:01;;;;;;;0.57;0.43;;;20.60;99.90;;;;;;4952056;28;20539;-96
2023/09/26 09:22:26;;;;;;;0.30;0.30;;;20.70;99.90;;;;;;4891312;29;20028;-95
2023/09/26 09:24:56;;;;;;;5.60;0.47;;;20.80;99.90;;;;;;4931108;28;20098;-96
2023/09/26 09:27:40;;;;;;;1.60;1.55;;;21.00;99.90;;;;;;4944728;28;20126;-92
2023/09/26 09:30:09;;;;;;;0.50;0.50;;;21.20;99.90;;;;;;4951794;28;20027;-94
2023/09/26 09:32:35;;;;;;;0.32;0.32;;;21.30;99.70;;;;;;4950004;28;20015;-96
2023/09/26 09:35:02;;;;;;;0.82;0.80;;;21.40;99.60;;;;;;4950461;28;20368;-95
2023/09/26 09:37:28;;;;;;;0.50;0.50;;;21.40;98.10;;;;;;4951451;28;20105;-96
2023/09/26 09:39:54;;;;;;;0.35;0.35;;;21.30;98.30;;;;;;4948519;28;20026;-95
2023/09/26 09:42:22;;;;;;;0.88;0.85;;;21.20;99.90;;;;;;4953269;28;20287;-95
2023/09/26 09:44:48;;;;;;;1.15;1.15;;;21.30;99.60;;;;;;4961395;28;20106;-95
2023/09/26 09:47:25;;;;;;;0.40;0.40;;;21.40;98.90;;;;;;4965746;28;20031;-95
2023/09/26 09:49:51;;;;;;;0.50;0.50;;;21.60;98.90;;;;;;4967807;28;20015;-93
2023/09/26 09:52:19;;;;;;;0.60;0.60;;;21.90;98.80;;;;;;4966048;28;20023;-95
2023/09/26 09:54:46;;;;;;;0.75;0.75;;;22.20;98.30;;;;;;4947211;28;20039;-95
2023/09/26 09:57:14;;;;;;;0.50;0.50;;;22.20;98.20;;;;;;4964127;28;20037;-95
2023/09/26 09:59:42;;;;;;;0.50;0.50;;;22.50;96.40;;;;;;4947336;28;20030;-96
2023/09/26 10:02:10;;;;;;;0.77;0.77;;;22.70;95.90;;;;;;4946966;28;20023;-95
2023/09/26 10:04:37;;;;;;;0.93;0.55;;;22.80;95.30;;;;;;4949591;28;20025;-96
2023/09/26 10:07:03;;;;;;;0.75;0.75;;;22.90;96.00;;;;;;4962972;28;20022;-93
2023/09/26 10:09:31;;;;;;;0.40;0.40;;;22.90;96.10;;;;;;4963003;28;20027;-94
2023/09/26 10:11:59;;;;;;;0.60;0.60;;;23.00;95.10;;;;;;4960290;28;20474;-95
2023/09/26 10:14:28;;;;;;;0.70;0.70;;;23.10;95.80;;;;;;4945107;28;20039;-91
2023/09/26 10:16:55;;;;;;;1.10;1.10;;;23.20;93.90;;;;;;4951064;28;20026;-91
2023/09/26 10:19:28;;;;;;;0.40;0.40;;;23.40;93.20;;;;;;4955459;28;20030;-91
2023/09/26 10:22:19;;;;;;;3.03;0.65;;;23.50;96.40;;;;;;4949375;28;20038;-91
2023/09/26 10:24:53;;;;;;;0.60;0.60;;;23.60;94.80;;;;;;4944047;28;20054;-91
2023/09/26 10:27:40;;;;;;;0.70;0.70;;;23.80;95.40;;;;;;4960376;28;20054;-91
2023/09/26 10:30:12;;;;;;;1.05;0.60;;;23.90;93.80;;;;;;4944225;28;20027;-91
2023/09/26 10:32:42;;;;;;;0.57;0.50;;;24.10;92.10;;;;;;4950921;28;20030;-91
2023/09/26 10:35:30;;;;;;;1.40;0.80;;;24.50;91.60;;;;;;4945366;28;20530;-91
2023/09/26 10:38:18;;;;;;;0.70;0.70;;;25.00;91.30;;;;;;4951133;28;20046;-91
2023/09/26 10:40:48;;;;;;;0.57;0.57;;;25.10;92.30;;;;;;4951743;28;20023;-91
2023/09/26 10:43:17;;;;;;;0.90;0.90;;;24.90;90.00;;;;;;4951428;28;20015;-91
2023/09/26 10:45:46;;;;;;;0.70;0.70;;;24.70;92.40;;;;;;4951316;28;20034;-91
2023/09/26 10:48:21;;;;;;;0.52;0.52;;;24.70;92.60;;;;;;4950886;28;20059;-91
2023/09/26 10:50:48;;;;;;;0.70;0.70;;;24.80;90.40;;;;;;4948212;28;20078;-91
2023/09/26 10:53:14;;;;;;;0.90;0.90;;;25.20;91.40;;;;;;4950092;28;20034;-92
2023/09/26 10:55:41;;;;;;;1.40;1.20;;;25.10;90.30;;;;;;4951179;28;20432;-91
2023/09/26 10:58:07;;;;;;;1.45;1.42;;;25.00;91.20;;;;;;4950154;28;20153;-91
2023/09/26 11:00:36;;;;;;;0.80;0.80;;;25.00;90.30;;;;;;4951911;28;20277;-90
2023/09/26 11:03:02;;;;;;;0.95;0.95;;;25.00;93.50;;;;;;4947322;28;20023;-91
2023/09/26 11:05:31;;;;;;;0.75;0.75;;;24.90;89.50;;;;;;4950797;28;20030;-92
2023/09/26 11:07:56;;;;;;;0.68;0.68;;;24.90;90.30;;;;;;4951537;28;20054;-92
2023/09/26 11:10:22;;;;;;;0.60;0.60;;;24.70;89.00;;;;;;4949262;28;20199;-89
2023/09/26 11:12:48;;;;;;;1.00;1.00;;;24.70;89.50;;;;;;4949529;28;20035;-91
2023/09/26 11:15:14;;;;;;;0.93;0.93;;;24.70;89.70;;;;;;4948218;28;20039;-91
2023/09/26 11:17:40;;;;;;;0.45;0.45;;;24.90;89.60;;;;;;4951136;28;20398;-92
2023/09/26 11:20:09;;;;;;;0.60;0.60;;;24.90;88.50;;;;;;4950877;28;20105;-92
2023/09/26 11:22:48;;;;;;;0.80;0.80;;;25.10;90.40;;;;;;4949400;28;20417;-91
2023/09/26 11:25:15;;;;;;;0.55;0.55;;;25.10;88.80;;;;;;4930469;28;20038;-92
2023/09/26 11:27:48;;;;;;;0.75;0.75;;;25.00;86.70;;;;;;4930827;29;20024;-91
2023/09/26 11:30:21;;;;;;;0.80;0.80;;;25.00;88.60;;;;;;4931461;29;20159;-91
2023/09/26 11:32:54;;;;;;;0.68;0.68;;;24.90;87.20;;;;;;4928615;28;20031;-92
2023/09/26 11:35:24;;;;;;;0.65;0.65;;;24.90;89.10;;;;;;4932667;29;20032;-92
2023/09/26 11:37:54;;;;;;;0.63;0.63;;;25.10;88.10;;;;;;4917021;28;20076;-92
2023/09/26 11:40:27;;;;;;;0.50;0.50;;;25.00;84.90;;;;;;4925002;29;20035;-95
2023/09/26 11:42:55;;;;;;;0.75;0.57;;;25.00;84.40;;;;;;4931066;28;20028;-96
2023/09/26 11:45:28;;;;;;;0.70;0.70;;;25.10;88.60;;;;;;4934282;29;20070;-95
2023/09/26 11:47:58;;;;;;;0.60;0.60;;;25.20;84.70;;;;;;4924658;29;20034;-96
2023/09/26 11:50:24;;;;;;;0.60;0.60;;;25.40;83.70;;;;;;4926162;29;20027;-95
2023/09/26 11:52:50;;;;;;;0.75;0.75;;;25.80;82.70;;;;;;5050586;23;20407;-96
2023/09/26 11:55:17;;;;;;;0.50;0.50;;;25.40;79.00;;;;;;4942162;28;20035;-93
2023/09/26 11:57:44;;;;;;;0.60;0.60;;;25.20;81.90;;;;;;4936303;28;20036;-91
2023/09/26 12:00:15;;;;;;;0.50;0.50;;;24.90;82.40;;;;;;4931996;28;20063;-92
2023/09/26 12:02:46;;;;;;;0.60;0.60;;;24.90;82.50;;;;;;4956009;28;20085;-93
2023/09/26 12:05:13;;;;;;;0.70;0.70;;;24.90;80.10;;;;;;4935790;28;20031;-92
2023/09/26 12:07:40;;;;;;;0.60;0.60;;;24.90;81.70;;;;;;4943890;28;20852;-92
2023/09/26 12:10:10;;;;;;;0.45;0.45;;;25.00;80.30;;;;;;4941709;28;20035;-93
2023/09/26 12:12:36;;;;;;;0.70;0.70;;;24.80;80.90;;;;;;4941166;28;20034;-93
2023/09/26 12:15:20;;;;;;;3.55;0.50;;;24.70;82.10;;;;;;4933155;28;20070;-93
2023/09/26 12:17:53;;;;;;;0.77;0.77;;;24.80;83.00;;;;;;4939239;28;20058;-92
2023/09/26 12:20:24;;;;;;;0.50;0.50;;;24.80;82.40;;;;;;4941185;28;20028;-92
2023/09/26 12:22:54;;;;;;;0.40;0.40;;;24.80;83.30;;;;;;4938933;28;20032;-92
2023/09/26 12:25:22;;;;;;;1.25;1.25;;;24.90;85.30;;;;;;4936879;28;20032;-93
2023/09/26 12:27:49;;;;;;;0.45;0.45;;;25.10;86.70;;;;;;4925082;28;20039;-92
2023/09/26 12:30:15;;;;;;;0.55;0.55;;;25.10;81.40;;;;;;4938598;29;20034;-92
2023/09/26 12:32:41;;;;;;;0.50;0.50;;;24.90;82.50;;;;;;4936889;28;20027;-92
2023/09/26 12:35:07;;;;;;;0.40;0.40;;;24.90;82.50;;;;;;4932072;28;20023;-92
2023/09/26 12:37:33;;;;;;;0.50;0.50;;;24.80;83.90;;;;;;4945406;28;20023;-92
2023/09/26 12:39:59;;;;;;;0.50;0.50;;;24.80;82.60;;;;;;4931716;29;20031;-93
2023/09/26 12:42:25;;;;;;;0.50;0.50;;;24.80;90.00;;;;;;4941696;29;20031;-92
2023/09/26 12:44:51;;;;;;;0.47;0.47;;;24.80;87.70;;;;;;4935566;29;20435;-93
2023/09/26 12:47:28;;;;;;;0.65;0.65;;;24.80;84.40;;;;;;4939170;28;20034;-92
2023/09/26 12:49:53;;;;;;;0.40;0.40;;;24.70;87.80;;;;;;4939610;29;20481;-92